sensor_id;sensor_type;location;lat;lon;timestamp;temperature;humidity
27978;DHT22;15314;49.248;6.968;2023-01-29T00:00:40;2.00;93.00
27978;DHT22;15314;49.248;6.968;2023-01-29T00:01:41;2.00;93.00
27978;DHT22;15314;49.248;6.968;2023-01-29T00:02:41;1.90;93.00
27978;DHT22;15314;49.248;6.968;2023-01-29T00:03:42;1.90;93.00
27978;DHT22;15314;49.248;6.968;2023-01-29T00:04:43;1.80;92.80
27978;DHT22;15314;49.248;6.968;2023-01-29T00:05:43;1.70;92.70
27978;DHT22;15314;49.248;6.968;2023-01-29T00:06:44;1.80;93.00
27978;DHT22;15314;49.248;6.968;2023-01-29T00:07:45;1.80;93.00
27978;DHT22;15314;49.248;6.968;2023-01-29T00:08:46;1.80;93.00
27978;DHT22;15314;49.248;6.968;2023-01-29T00:09:47;1.80;93.00
27978;DHT22;15314;49.248;6.968;2023-01-29T00:10:47;1.80;93.10
27978;DHT22;15314;49.248;6.968;2023-01-29T00:11:48;1.80;93.00
27978;DHT22;15314;49.248;6.968;2023-01-29T00:12:49;1.70;92.90
27978;DHT22;15314;49.248;6.968;2023-01-29T00:13:51;1.70;93.00
27978;DHT22;15314;49.248;6.968;2023-01-29T00:14:52;1.80;93.50
27978;DHT22;15314;49.248;6.968;2023-01-29T00:15:57;1.70;93.20
27978;DHT22;15314;49.248;6.968;2023-01-29T00:16:58;1.70;93.10
27978;DHT22;15314;49.248;6.968;2023-01-29T00:17:59;1.70;93.00
27978;DHT22;15314;49.248;6.968;2023-01-29T00:19:00;1.70;93.10
27978;DHT22;15314;49.248;6.968;2023-01-29T00:20:01;1.70;93.20
27978;DHT22;15314;49.248;6.968;2023-01-29T00:21:02;1.60;92.90
27978;DHT22;15314;49.248;6.968;2023-01-29T00:22:02;1.60;92.90
27978;DHT22;15314;49.248;6.968;2023-01-29T00:23:03;1.60;93.00
27978;DHT22;15314;49.248;6.968;2023-01-29T00:24:04;1.60;92.80
27978;DHT22;15314;49.248;6.968;2023-01-29T00:25:05;1.60;93.00
27978;DHT22;15314;49.248;6.968;2023-01-29T00:26:06;1.60;93.10
27978;DHT22;15314;49.248;6.968;2023-01-29T00:27:07;1.60;93.10
27978;DHT22;15314;49.248;6.968;2023-01-29T00:28:08;1.50;92.80
27978;DHT22;15314;49.248;6.968;2023-01-29T00:29:08;1.40;92.80
27978;DHT22;15314;49.248;6.968;2023-01-29T00:30:09;1.40;93.10
27978;DHT22;15314;49.248;6.968;2023-01-29T00:31:19;1.40;93.00
27978;DHT22;15314;49.248;6.968;2023-01-29T00:32:20;1.40;93.00
27978;DHT22;15314;49.248;6.968;2023-01-29T00:33:21;1.50;93.00
27978;DHT22;15314;49.248;6.968;2023-01-29T00:34:21;1.40;93.10
27978;DHT22;15314;49.248;6.968;2023-01-29T00:35:23;1.40;93.20
27978;DHT22;15314;49.248;6.968;2023-01-29T00:36:24;1.50;93.40
27978;DHT22;15314;49.248;6.968;2023-01-29T00:37:25;1.40;93.00
27978;DHT22;15314;49.248;6.968;2023-01-29T00:38:26;1.40;93.20
27978;DHT22;15314;49.248;6.968;2023-01-29T00:39:26;1.50;93.00
27978;DHT22;15314;49.248;6.968;2023-01-29T00:40:38;1.50;93.00
27978;DHT22;15314;49.248;6.968;2023-01-29T00:42:05;1.40;92.90
27978;DHT22;15314;49.248;6.968;2023-01-29T00:43:25;1.40;93.20
27978;DHT22;15314;49.248;6.968;2023-01-29T00:44:44;1.50;93.10
27978;DHT22;15314;49.248;6.968;2023-01-29T00:45:56;1.50;93.10
27978;DHT22;15314;49.248;6.968;2023-01-29T00:46:57;1.50;93.20
27978;DHT22;15314;49.248;6.968;2023-01-29T00:47:58;1.50;93.10
27978;DHT22;15314;49.248;6.968;2023-01-29T00:48:58;1.50;93.30
27978;DHT22;15314;49.248;6.968;2023-01-29T00:50:00;1.50;93.30
27978;DHT22;15314;49.248;6.968;2023-01-29T00:51:02;1.50;93.30
27978;DHT22;15314;49.248;6.968;2023-01-29T00:52:02;1.50;93.40
27978;DHT22;15314;49.248;6.968;2023-01-29T00:53:22;1.50;93.40
27978;DHT22;15314;49.248;6.968;2023-01-29T00:54:22;1.50;93.60
27978;DHT22;15314;49.248;6.968;2023-01-29T00:55:23;1.50;93.60
27978;DHT22;15314;49.248;6.968;2023-01-29T00:56:24;1.50;93.40
27978;DHT22;15314;49.248;6.968;2023-01-29T00:57:26;1.50;93.70
27978;DHT22;15314;49.248;6.968;2023-01-29T00:58:27;1.60;93.40
27978;DHT22;15314;49.248;6.968;2023-01-29T00:59:33;1.60;93.60
27978;DHT22;15314;49.248;6.968;2023-01-29T01:00:34;1.60;93.70
27978;DHT22;15314;49.248;6.968;2023-01-29T01:01:34;1.60;93.50
27978;DHT22;15314;49.248;6.968;2023-01-29T01:02:53;1.60;93.50
27978;DHT22;15314;49.248;6.968;2023-01-29T01:04:08;1.60;93.40
27978;DHT22;15314;49.248;6.968;2023-01-29T01:05:10;1.60;93.40
27978;DHT22;15314;49.248;6.968;2023-01-29T01:06:17;1.70;93.60
27978;DHT22;15314;49.248;6.968;2023-01-29T01:07:17;1.70;93.60
27978;DHT22;15314;49.248;6.968;2023-01-29T01:08:18;1.70;93.80
27978;DHT22;15314;49.248;6.968;2023-01-29T01:09:37;1.70;93.40
27978;DHT22;15314;49.248;6.968;2023-01-29T01:11:06;1.60;93.30
27978;DHT22;15314;49.248;6.968;2023-01-29T01:12:06;1.60;93.40
27978;DHT22;15314;49.248;6.968;2023-01-29T01:13:07;1.50;93.30
27978;DHT22;15314;49.248;6.968;2023-01-29T01:14:08;1.50;93.40
27978;DHT22;15314;49.248;6.968;2023-01-29T01:15:09;1.40;93.50
27978;DHT22;15314;49.248;6.968;2023-01-29T01:16:15;1.50;93.30
27978;DHT22;15314;49.248;6.968;2023-01-29T01:17:16;1.50;93.50
27978;DHT22;15314;49.248;6.968;2023-01-29T01:18:16;1.60;93.70
27978;DHT22;15314;49.248;6.968;2023-01-29T01:19:19;1.60;93.70
27978;DHT22;15314;49.248;6.968;2023-01-29T01:20:21;1.70;93.60
27978;DHT22;15314;49.248;6.968;2023-01-29T01:21:22;1.70;93.60
27978;DHT22;15314;49.248;6.968;2023-01-29T01:22:22;1.70;93.60
27978;DHT22;15314;49.248;6.968;2023-01-29T01:23:23;1.70;93.60
27978;DHT22;15314;49.248;6.968;2023-01-29T01:24:23;1.70;93.60
27978;DHT22;15314;49.248;6.968;2023-01-29T01:25:25;1.70;93.30
27978;DHT22;15314;49.248;6.968;2023-01-29T01:26:26;1.60;93.50
27978;DHT22;15314;49.248;6.968;2023-01-29T01:27:27;1.60;93.80
27978;DHT22;15314;49.248;6.968;2023-01-29T01:28:28;1.60;93.80
27978;DHT22;15314;49.248;6.968;2023-01-29T01:29:29;1.50;93.60
27978;DHT22;15314;49.248;6.968;2023-01-29T01:30:29;1.50;93.60
27978;DHT22;15314;49.248;6.968;2023-01-29T01:31:30;1.50;93.90
27978;DHT22;15314;49.248;6.968;2023-01-29T01:32:30;1.50;94.10
27978;DHT22;15314;49.248;6.968;2023-01-29T01:33:31;1.50;93.90
27978;DHT22;15314;49.248;6.968;2023-01-29T01:34:32;1.50;93.80
27978;DHT22;15314;49.248;6.968;2023-01-29T01:35:32;1.60;93.70
27978;DHT22;15314;49.248;6.968;2023-01-29T01:36:33;1.50;93.90
27978;DHT22;15314;49.248;6.968;2023-01-29T01:37:33;1.50;93.80
27978;DHT22;15314;49.248;6.968;2023-01-29T01:38:36;1.40;93.80
27978;DHT22;15314;49.248;6.968;2023-01-29T01:39:43;1.40;94.00
27978;DHT22;15314;49.248;6.968;2023-01-29T01:40:48;1.40;94.10
27978;DHT22;15314;49.248;6.968;2023-01-29T01:41:49;1.40;94.20
27978;DHT22;15314;49.248;6.968;2023-01-29T01:42:52;1.30;94.00
27978;DHT22;15314;49.248;6.968;2023-01-29T01:43:58;1.20;94.10
27978;DHT22;15314;49.248;6.968;2023-01-29T01:45:02;1.20;94.20
27978;DHT22;15314;49.248;6.968;2023-01-29T01:46:04;1.20;94.20
27978;DHT22;15314;49.248;6.968;2023-01-29T01:47:05;1.10;94.20
27978;DHT22;15314;49.248;6.968;2023-01-29T01:48:12;1.10;94.40
27978;DHT22;15314;49.248;6.968;2023-01-29T01:49:17;1.00;94.50
27978;DHT22;15314;49.248;6.968;2023-01-29T01:50:34;1.00;94.60
27978;DHT22;15314;49.248;6.968;2023-01-29T01:51:39;1.00;94.70
27978;DHT22;15314;49.248;6.968;2023-01-29T01:52:45;0.90;94.60
27978;DHT22;15314;49.248;6.968;2023-01-29T01:54:13;0.90;94.70
27978;DHT22;15314;49.248;6.968;2023-01-29T01:55:22;0.90;94.70
27978;DHT22;15314;49.248;6.968;2023-01-29T01:56:30;0.90;94.80
27978;DHT22;15314;49.248;6.968;2023-01-29T01:57:38;0.90;94.80
27978;DHT22;15314;49.248;6.968;2023-01-29T01:58:44;0.80;94.70
27978;DHT22;15314;49.248;6.968;2023-01-29T01:59:49;0.80;94.70
27978;DHT22;15314;49.248;6.968;2023-01-29T02:00:52;0.70;94.90
27978;DHT22;15314;49.248;6.968;2023-01-29T02:01:53;0.70;94.60
27978;DHT22;15314;49.248;6.968;2023-01-29T02:02:54;0.70;94.40
27978;DHT22;15314;49.248;6.968;2023-01-29T02:04:16;0.60;94.40
27978;DHT22;15314;49.248;6.968;2023-01-29T02:05:36;0.60;94.70
27978;DHT22;15314;49.248;6.968;2023-01-29T02:06:57;0.60;94.90
27978;DHT22;15314;49.248;6.968;2023-01-29T02:08:25;0.60;94.90
27978;DHT22;15314;49.248;6.968;2023-01-29T02:10:09;0.60;94.70
27978;DHT22;15314;49.248;6.968;2023-01-29T02:11:12;0.60;94.90
27978;DHT22;15314;49.248;6.968;2023-01-29T02:12:15;0.50;94.90
27978;DHT22;15314;49.248;6.968;2023-01-29T02:13:16;0.50;94.80
27978;DHT22;15314;49.248;6.968;2023-01-29T02:14:18;0.50;94.90
27978;DHT22;15314;49.248;6.968;2023-01-29T02:15:18;0.50;94.90
27978;DHT22;15314;49.248;6.968;2023-01-29T02:16:21;0.50;94.90
27978;DHT22;15314;49.248;6.968;2023-01-29T02:17:22;0.50;94.90
27978;DHT22;15314;49.248;6.968;2023-01-29T02:18:22;0.50;94.90
27978;DHT22;15314;49.248;6.968;2023-01-29T02:27:22;0.40;95.40
27978;DHT22;15314;49.248;6.968;2023-01-29T02:28:34;0.40;95.10
27978;DHT22;15314;49.248;6.968;2023-01-29T02:31:40;0.40;94.90
27978;DHT22;15314;49.248;6.968;2023-01-29T02:32:50;0.30;95.00
27978;DHT22;15314;49.248;6.968;2023-01-29T02:34:21;0.30;95.10
27978;DHT22;15314;49.248;6.968;2023-01-29T02:35:31;0.30;95.20
27978;DHT22;15314;49.248;6.968;2023-01-29T02:40:22;0.30;95.20
27978;DHT22;15314;49.248;6.968;2023-01-29T02:42:43;0.30;95.30
27978;DHT22;15314;49.248;6.968;2023-01-29T02:44:01;0.30;95.20
27978;DHT22;15314;49.248;6.968;2023-01-29T02:45:25;0.30;95.30
27978;DHT22;15314;49.248;6.968;2023-01-29T02:46:34;0.30;95.60
27978;DHT22;15314;49.248;6.968;2023-01-29T02:47:44;0.30;95.40
27978;DHT22;15314;49.248;6.968;2023-01-29T02:49:05;0.30;95.30
27978;DHT22;15314;49.248;6.968;2023-01-29T02:50:25;0.30;95.30
27978;DHT22;15314;49.248;6.968;2023-01-29T02:51:35;0.30;95.10
27978;DHT22;15314;49.248;6.968;2023-01-29T02:53:00;0.30;95.10
27978;DHT22;15314;49.248;6.968;2023-01-29T02:54:12;0.30;95.30
27978;DHT22;15314;49.248;6.968;2023-01-29T02:55:22;0.30;95.40
27978;DHT22;15314;49.248;6.968;2023-01-29T02:56:33;0.30;95.30
27978;DHT22;15314;49.248;6.968;2023-01-29T02:57:38;0.30;95.30
27978;DHT22;15314;49.248;6.968;2023-01-29T02:59:26;0.30;95.10
27978;DHT22;15314;49.248;6.968;2023-01-29T03:00:28;0.20;95.40
27978;DHT22;15314;49.248;6.968;2023-01-29T03:01:33;0.20;95.30
27978;DHT22;15314;49.248;6.968;2023-01-29T03:03:48;0.20;95.30
27978;DHT22;15314;49.248;6.968;2023-01-29T03:04:55;0.20;95.30
27978;DHT22;15314;49.248;6.968;2023-01-29T03:06:05;0.20;95.30
27978;DHT22;15314;49.248;6.968;2023-01-29T03:07:09;0.20;95.40
27978;DHT22;15314;49.248;6.968;2023-01-29T03:08:44;0.20;95.40
27978;DHT22;15314;49.248;6.968;2023-01-29T03:09:51;0.20;95.40
27978;DHT22;15314;49.248;6.968;2023-01-29T03:10:56;0.20;95.40
27978;DHT22;15314;49.248;6.968;2023-01-29T03:12:24;0.20;95.30
27978;DHT22;15314;49.248;6.968;2023-01-29T03:14:41;0.20;95.40
27978;DHT22;15314;49.248;6.968;2023-01-29T03:16:13;0.20;95.40
27978;DHT22;15314;49.248;6.968;2023-01-29T03:17:23;0.20;95.50
27978;DHT22;15314;49.248;6.968;2023-01-29T03:18:32;0.20;95.50
27978;DHT22;15314;49.248;6.968;2023-01-29T03:19:39;0.10;95.60
27978;DHT22;15314;49.248;6.968;2023-01-29T03:20:44;0.10;95.70
27978;DHT22;15314;49.248;6.968;2023-01-29T03:21:56;0.00;95.90
27978;DHT22;15314;49.248;6.968;2023-01-29T03:23:03;0.00;95.70
27978;DHT22;15314;49.248;6.968;2023-01-29T03:24:09;0.00;95.90
27978;DHT22;15314;49.248;6.968;2023-01-29T03:25:29;0.00;96.00
27978;DHT22;15314;49.248;6.968;2023-01-29T03:26:49;0.00;95.70
27978;DHT22;15314;49.248;6.968;2023-01-29T03:28:11;0.00;95.70
27978;DHT22;15314;49.248;6.968;2023-01-29T03:29:32;0.00;96.10
27978;DHT22;15314;49.248;6.968;2023-01-29T03:30:55;0.00;95.90
27978;DHT22;15314;49.248;6.968;2023-01-29T03:32:16;-0.10;95.80
27978;DHT22;15314;49.248;6.968;2023-01-29T03:33:18;-0.10;96.00
27978;DHT22;15314;49.248;6.968;2023-01-29T03:34:26;0.00;96.10
27978;DHT22;15314;49.248;6.968;2023-01-29T03:35:37;-0.10;96.00
27978;DHT22;15314;49.248;6.968;2023-01-29T03:36:43;0.00;96.00
27978;DHT22;15314;49.248;6.968;2023-01-29T03:37:48;-0.10;96.00
27978;DHT22;15314;49.248;6.968;2023-01-29T03:38:49;-0.10;96.00
27978;DHT22;15314;49.248;6.968;2023-01-29T03:39:50;-0.10;96.00
27978;DHT22;15314;49.248;6.968;2023-01-29T03:41:27;-0.10;96.00
27978;DHT22;15314;49.248;6.968;2023-01-29T03:42:51;-0.10;96.10
27978;DHT22;15314;49.248;6.968;2023-01-29T03:44:31;-0.10;96.20
27978;DHT22;15314;49.248;6.968;2023-01-29T03:45:35;-0.10;96.10
27978;DHT22;15314;49.248;6.968;2023-01-29T03:46:51;-0.10;96.40
27978;DHT22;15314;49.248;6.968;2023-01-29T03:48:13;-0.10;96.50
27978;DHT22;15314;49.248;6.968;2023-01-29T03:52:08;-0.10;96.40
27978;DHT22;15314;49.248;6.968;2023-01-29T03:53:30;-0.10;96.30
27978;DHT22;15314;49.248;6.968;2023-01-29T03:55:02;-0.10;96.70
27978;DHT22;15314;49.248;6.968;2023-01-29T03:56:32;-0.20;96.60
27978;DHT22;15314;49.248;6.968;2023-01-29T03:57:50;-0.20;96.80
27978;DHT22;15314;49.248;6.968;2023-01-29T03:58:58;-0.20;96.70
27978;DHT22;15314;49.248;6.968;2023-01-29T04:01:37;-0.20;96.70
27978;DHT22;15314;49.248;6.968;2023-01-29T04:04:14;-0.20;97.00
27978;DHT22;15314;49.248;6.968;2023-01-29T04:05:19;-0.30;97.10
27978;DHT22;15314;49.248;6.968;2023-01-29T04:06:23;-0.30;97.20
27978;DHT22;15314;49.248;6.968;2023-01-29T04:07:27;-0.30;97.20
27978;DHT22;15314;49.248;6.968;2023-01-29T04:08:39;-0.40;97.20
27978;DHT22;15314;49.248;6.968;2023-01-29T04:09:54;-0.40;97.30
27978;DHT22;15314;49.248;6.968;2023-01-29T04:10:58;-0.40;97.40
27978;DHT22;15314;49.248;6.968;2023-01-29T04:12:04;-0.40;97.50
27978;DHT22;15314;49.248;6.968;2023-01-29T04:13:10;-0.40;97.80
27978;DHT22;15314;49.248;6.968;2023-01-29T04:14:14;-0.40;98.10
27978;DHT22;15314;49.248;6.968;2023-01-29T04:15:16;-0.50;98.20
27978;DHT22;15314;49.248;6.968;2023-01-29T04:16:20;-0.50;98.10
27978;DHT22;15314;49.248;6.968;2023-01-29T04:17:26;-0.50;98.10
27978;DHT22;15314;49.248;6.968;2023-01-29T04:18:29;-0.50;98.30
27978;DHT22;15314;49.248;6.968;2023-01-29T04:19:30;-0.50;98.50
27978;DHT22;15314;49.248;6.968;2023-01-29T04:20:31;-0.60;98.50
27978;DHT22;15314;49.248;6.968;2023-01-29T04:21:32;-0.60;98.70
27978;DHT22;15314;49.248;6.968;2023-01-29T04:22:36;-0.60;98.80
27978;DHT22;15314;49.248;6.968;2023-01-29T04:23:37;-0.60;98.60
27978;DHT22;15314;49.248;6.968;2023-01-29T04:24:38;-0.60;98.30
27978;DHT22;15314;49.248;6.968;2023-01-29T04:25:46;-0.60;98.40
27978;DHT22;15314;49.248;6.968;2023-01-29T04:32:15;-0.50;98.30
27978;DHT22;15314;49.248;6.968;2023-01-29T04:34:24;-0.50;98.30
27978;DHT22;15314;49.248;6.968;2023-01-29T04:37:14;-0.50;98.30
27978;DHT22;15314;49.248;6.968;2023-01-29T04:38:46;-0.50;98.20
27978;DHT22;15314;49.248;6.968;2023-01-29T04:39:58;-0.50;98.50
27978;DHT22;15314;49.248;6.968;2023-01-29T04:41:12;-0.60;98.60
27978;DHT22;15314;49.248;6.968;2023-01-29T04:44:38;-0.60;98.60
27978;DHT22;15314;49.248;6.968;2023-01-29T04:48:23;-0.60;98.50
27978;DHT22;15314;49.248;6.968;2023-01-29T04:49:42;-0.50;98.30
27978;DHT22;15314;49.248;6.968;2023-01-29T04:52:08;-0.70;98.40
27978;DHT22;15314;49.248;6.968;2023-01-29T04:53:25;-0.70;98.60
27978;DHT22;15314;49.248;6.968;2023-01-29T04:58:13;-0.80;99.00
27978;DHT22;15314;49.248;6.968;2023-01-29T04:59:20;-0.80;98.80
27978;DHT22;15314;49.248;6.968;2023-01-29T05:00:30;-0.80;98.90
27978;DHT22;15314;49.248;6.968;2023-01-29T05:01:32;-0.70;99.00
27978;DHT22;15314;49.248;6.968;2023-01-29T05:02:38;-0.80;98.80
27978;DHT22;15314;49.248;6.968;2023-01-29T05:03:41;-0.80;99.00
27978;DHT22;15314;49.248;6.968;2023-01-29T05:04:44;-0.80;99.00
27978;DHT22;15314;49.248;6.968;2023-01-29T05:05:47;-0.90;99.00
27978;DHT22;15314;49.248;6.968;2023-01-29T05:06:48;-0.90;98.80
27978;DHT22;15314;49.248;6.968;2023-01-29T05:07:50;-0.90;99.00
27978;DHT22;15314;49.248;6.968;2023-01-29T05:08:51;-0.90;99.00
27978;DHT22;15314;49.248;6.968;2023-01-29T05:09:51;-0.90;99.00
27978;DHT22;15314;49.248;6.968;2023-01-29T05:10:53;-0.90;99.10
27978;DHT22;15314;49.248;6.968;2023-01-29T05:11:55;-0.90;99.10
27978;DHT22;15314;49.248;6.968;2023-01-29T05:13:00;-0.90;98.90
27978;DHT22;15314;49.248;6.968;2023-01-29T05:14:03;-0.90;98.90
27978;DHT22;15314;49.248;6.968;2023-01-29T05:15:10;-0.90;99.20
27978;DHT22;15314;49.248;6.968;2023-01-29T05:17:18;-0.80;99.10
27978;DHT22;15314;49.248;6.968;2023-01-29T05:18:20;-0.80;98.90
27978;DHT22;15314;49.248;6.968;2023-01-29T05:19:20;-0.80;98.90
27978;DHT22;15314;49.248;6.968;2023-01-29T05:20:21;-0.80;98.70
27978;DHT22;15314;49.248;6.968;2023-01-29T05:21:22;-0.80;99.00
27978;DHT22;15314;49.248;6.968;2023-01-29T05:22:23;-0.80;99.10
27978;DHT22;15314;49.248;6.968;2023-01-29T05:23:27;-0.90;99.30
27978;DHT22;15314;49.248;6.968;2023-01-29T05:24:28;-0.90;99.40
27978;DHT22;15314;49.248;6.968;2023-01-29T05:25:31;-0.90;99.40
27978;DHT22;15314;49.248;6.968;2023-01-29T05:26:32;-0.90;99.30
27978;DHT22;15314;49.248;6.968;2023-01-29T05:27:52;-0.90;99.10
27978;DHT22;15314;49.248;6.968;2023-01-29T05:29:06;-0.90;99.20
27978;DHT22;15314;49.248;6.968;2023-01-29T05:30:07;-0.90;99.10
27978;DHT22;15314;49.248;6.968;2023-01-29T05:31:09;-0.90;99.30
27978;DHT22;15314;49.248;6.968;2023-01-29T05:32:10;-0.90;99.60
27978;DHT22;15314;49.248;6.968;2023-01-29T05:33:14;-1.00;99.80
27978;DHT22;15314;49.248;6.968;2023-01-29T05:34:15;-1.00;99.90
27978;DHT22;15314;49.248;6.968;2023-01-29T05:35:15;-1.00;99.90
27978;DHT22;15314;49.248;6.968;2023-01-29T05:36:16;-1.10;99.90
27978;DHT22;15314;49.248;6.968;2023-01-29T05:37:16;-1.10;99.90
27978;DHT22;15314;49.248;6.968;2023-01-29T05:38:18;-1.10;99.90
27978;DHT22;15314;49.248;6.968;2023-01-29T05:39:19;-1.10;99.90
27978;DHT22;15314;49.248;6.968;2023-01-29T05:40:23;-1.10;99.80
27978;DHT22;15314;49.248;6.968;2023-01-29T05:41:24;-1.00;99.70
27978;DHT22;15314;49.248;6.968;2023-01-29T05:42:24;-1.10;99.80
27978;DHT22;15314;49.248;6.968;2023-01-29T05:43:25;-1.10;99.90
27978;DHT22;15314;49.248;6.968;2023-01-29T05:44:26;-1.10;99.90
27978;DHT22;15314;49.248;6.968;2023-01-29T05:45:27;-1.00;99.90
27978;DHT22;15314;49.248;6.968;2023-01-29T05:46:28;-1.00;99.70
27978;DHT22;15314;49.248;6.968;2023-01-29T05:47:28;-1.00;99.70
27978;DHT22;15314;49.248;6.968;2023-01-29T05:48:29;-1.10;99.80
27978;DHT22;15314;49.248;6.968;2023-01-29T05:49:31;-1.10;99.80
27978;DHT22;15314;49.248;6.968;2023-01-29T05:50:31;-1.10;99.90
27978;DHT22;15314;49.248;6.968;2023-01-29T05:51:32;-1.00;99.80
27978;DHT22;15314;49.248;6.968;2023-01-29T05:52:33;-1.00;99.80
27978;DHT22;15314;49.248;6.968;2023-01-29T05:53:33;-1.00;99.90
27978;DHT22;15314;49.248;6.968;2023-01-29T05:54:34;-1.10;99.90
27978;DHT22;15314;49.248;6.968;2023-01-29T05:55:34;-1.00;99.90
27978;DHT22;15314;49.248;6.968;2023-01-29T05:56:35;-1.00;99.90
27978;DHT22;15314;49.248;6.968;2023-01-29T05:57:36;-1.00;99.80
27978;DHT22;15314;49.248;6.968;2023-01-29T05:58:37;-0.90;99.70
27978;DHT22;15314;49.248;6.968;2023-01-29T05:59:38;-0.90;99.80
27978;DHT22;15314;49.248;6.968;2023-01-29T06:00:39;-1.00;99.90
27978;DHT22;15314;49.248;6.968;2023-01-29T06:01:39;-1.00;99.90
27978;DHT22;15314;49.248;6.968;2023-01-29T06:02:40;-1.10;99.90
27978;DHT22;15314;49.248;6.968;2023-01-29T06:03:40;-1.10;99.90
27978;DHT22;15314;49.248;6.968;2023-01-29T06:04:41;-1.10;99.90
27978;DHT22;15314;49.248;6.968;2023-01-29T06:05:42;-1.00;99.90
27978;DHT22;15314;49.248;6.968;2023-01-29T06:06:43;-1.00;99.90
27978;DHT22;15314;49.248;6.968;2023-01-29T06:07:43;-1.00;99.90
27978;DHT22;15314;49.248;6.968;2023-01-29T06:08:44;-1.00;99.90
27978;DHT22;15314;49.248;6.968;2023-01-29T06:09:45;-1.00;99.80
27978;DHT22;15314;49.248;6.968;2023-01-29T06:10:45;-1.00;99.90
27978;DHT22;15314;49.248;6.968;2023-01-29T06:11:46;-1.00;99.90
27978;DHT22;15314;49.248;6.968;2023-01-29T06:12:47;-1.00;99.90
27978;DHT22;15314;49.248;6.968;2023-01-29T06:13:47;-1.00;99.90
27978;DHT22;15314;49.248;6.968;2023-01-29T06:14:48;-1.00;99.90
27978;DHT22;15314;49.248;6.968;2023-01-29T06:15:49;-1.00;99.90
27978;DHT22;15314;49.248;6.968;2023-01-29T06:16:49;-1.00;99.90
27978;DHT22;15314;49.248;6.968;2023-01-29T06:17:52;-1.00;99.80
27978;DHT22;15314;49.248;6.968;2023-01-29T06:18:53;-1.00;99.80
27978;DHT22;15314;49.248;6.968;2023-01-29T06:19:53;-1.00;99.90
27978;DHT22;15314;49.248;6.968;2023-01-29T06:20:54;-0.90;99.90
27978;DHT22;15314;49.248;6.968;2023-01-29T06:21:55;-0.90;99.80
27978;DHT22;15314;49.248;6.968;2023-01-29T06:22:55;-0.90;99.80
27978;DHT22;15314;49.248;6.968;2023-01-29T06:23:56;-0.90;99.80
27978;DHT22;15314;49.248;6.968;2023-01-29T06:24:56;-0.90;99.80
27978;DHT22;15314;49.248;6.968;2023-01-29T06:26:05;-0.90;99.70
27978;DHT22;15314;49.248;6.968;2023-01-29T06:27:06;-0.90;99.90
27978;DHT22;15314;49.248;6.968;2023-01-29T06:28:07;-0.90;99.90
27978;DHT22;15314;49.248;6.968;2023-01-29T06:29:07;-1.00;99.90
27978;DHT22;15314;49.248;6.968;2023-01-29T06:30:08;-1.00;99.90
27978;DHT22;15314;49.248;6.968;2023-01-29T06:31:09;-1.00;99.90
27978;DHT22;15314;49.248;6.968;2023-01-29T06:32:10;-1.00;99.90
27978;DHT22;15314;49.248;6.968;2023-01-29T06:33:11;-1.00;99.90
27978;DHT22;15314;49.248;6.968;2023-01-29T06:34:11;-1.00;99.90
27978;DHT22;15314;49.248;6.968;2023-01-29T06:35:12;-1.00;99.90
27978;DHT22;15314;49.248;6.968;2023-01-29T06:36:13;-1.00;99.90
27978;DHT22;15314;49.248;6.968;2023-01-29T06:37:13;-1.00;99.90
27978;DHT22;15314;49.248;6.968;2023-01-29T06:38:14;-1.00;99.90
27978;DHT22;15314;49.248;6.968;2023-01-29T06:39:15;-1.00;99.90
27978;DHT22;15314;49.248;6.968;2023-01-29T06:40:15;-1.00;99.90
27978;DHT22;15314;49.248;6.968;2023-01-29T06:41:17;-0.90;99.90
27978;DHT22;15314;49.248;6.968;2023-01-29T06:42:18;-0.90;99.90
27978;DHT22;15314;49.248;6.968;2023-01-29T06:43:20;-0.90;99.90
27978;DHT22;15314;49.248;6.968;2023-01-29T06:44:21;-0.90;99.90
27978;DHT22;15314;49.248;6.968;2023-01-29T06:45:22;-0.90;99.90
27978;DHT22;15314;49.248;6.968;2023-01-29T06:46:23;-0.90;99.90
27978;DHT22;15314;49.248;6.968;2023-01-29T06:47:24;-0.90;99.90
27978;DHT22;15314;49.248;6.968;2023-01-29T06:48:26;-0.90;99.90
27978;DHT22;15314;49.248;6.968;2023-01-29T06:49:26;-0.90;99.90
27978;DHT22;15314;49.248;6.968;2023-01-29T06:50:27;-0.90;99.90
27978;DHT22;15314;49.248;6.968;2023-01-29T06:51:27;-0.90;99.90
27978;DHT22;15314;49.248;6.968;2023-01-29T06:52:28;-0.90;99.90
27978;DHT22;15314;49.248;6.968;2023-01-29T06:53:29;-0.90;99.90
27978;DHT22;15314;49.248;6.968;2023-01-29T06:54:30;-0.90;99.90
27978;DHT22;15314;49.248;6.968;2023-01-29T06:55:30;-1.00;99.90
27978;DHT22;15314;49.248;6.968;2023-01-29T06:56:31;-1.00;99.90
27978;DHT22;15314;49.248;6.968;2023-01-29T06:57:31;-1.00;99.90
27978;DHT22;15314;49.248;6.968;2023-01-29T06:58:34;-1.00;99.90
27978;DHT22;15314;49.248;6.968;2023-01-29T06:59:35;-1.00;99.90
27978;DHT22;15314;49.248;6.968;2023-01-29T07:00:36;-1.00;99.90
27978;DHT22;15314;49.248;6.968;2023-01-29T07:01:38;-1.00;99.90
27978;DHT22;15314;49.248;6.968;2023-01-29T07:02:43;-1.00;99.90
27978;DHT22;15314;49.248;6.968;2023-01-29T07:03:44;-1.00;99.90
27978;DHT22;15314;49.248;6.968;2023-01-29T07:04:44;-1.10;99.90
27978;DHT22;15314;49.248;6.968;2023-01-29T07:05:51;-1.10;99.90
27978;DHT22;15314;49.248;6.968;2023-01-29T07:06:52;-1.10;99.90
27978;DHT22;15314;49.248;6.968;2023-01-29T07:07:53;-1.10;99.90
27978;DHT22;15314;49.248;6.968;2023-01-29T07:08:53;-1.10;99.90
27978;DHT22;15314;49.248;6.968;2023-01-29T07:09:54;-1.00;99.90
27978;DHT22;15314;49.248;6.968;2023-01-29T07:11:01;-1.00;99.90
27978;DHT22;15314;49.248;6.968;2023-01-29T07:12:03;-1.00;99.90
27978;DHT22;15314;49.248;6.968;2023-01-29T07:13:04;-1.10;99.90
27978;DHT22;15314;49.248;6.968;2023-01-29T07:14:04;-1.10;99.90
27978;DHT22;15314;49.248;6.968;2023-01-29T07:15:06;-1.10;99.90
27978;DHT22;15314;49.248;6.968;2023-01-29T07:16:06;-1.00;99.90
27978;DHT22;15314;49.248;6.968;2023-01-29T07:17:07;-1.00;99.90
27978;DHT22;15314;49.248;6.968;2023-01-29T07:18:08;-1.00;99.90
27978;DHT22;15314;49.248;6.968;2023-01-29T07:19:12;-1.00;99.90
27978;DHT22;15314;49.248;6.968;2023-01-29T07:20:13;-1.00;99.90
27978;DHT22;15314;49.248;6.968;2023-01-29T07:21:13;-1.00;99.90
27978;DHT22;15314;49.248;6.968;2023-01-29T07:22:14;-1.00;99.90
27978;DHT22;15314;49.248;6.968;2023-01-29T07:23:17;-1.00;99.90
27978;DHT22;15314;49.248;6.968;2023-01-29T07:24:17;-1.00;99.90
27978;DHT22;15314;49.248;6.968;2023-01-29T07:25:19;-1.00;99.90
27978;DHT22;15314;49.248;6.968;2023-01-29T07:26:20;-0.90;99.90
27978;DHT22;15314;49.248;6.968;2023-01-29T07:27:20;-0.90;99.90
27978;DHT22;15314;49.248;6.968;2023-01-29T07:28:21;-0.90;99.90
27978;DHT22;15314;49.248;6.968;2023-01-29T07:29:21;-0.80;99.90
27978;DHT22;15314;49.248;6.968;2023-01-29T07:30:22;-0.70;99.90
27978;DHT22;15314;49.248;6.968;2023-01-29T07:31:23;-0.70;99.90
27978;DHT22;15314;49.248;6.968;2023-01-29T07:32:23;-0.60;99.90
27978;DHT22;15314;49.248;6.968;2023-01-29T07:33:24;-0.60;99.90
27978;DHT22;15314;49.248;6.968;2023-01-29T07:34:25;-0.60;99.90
27978;DHT22;15314;49.248;6.968;2023-01-29T07:35:25;-0.60;99.80
27978;DHT22;15314;49.248;6.968;2023-01-29T07:36:26;-0.60;99.70
27978;DHT22;15314;49.248;6.968;2023-01-29T07:37:27;-0.70;99.90